Time;durP1;ratioP1;P1;durP2;ratioP2;P2;SDS_P1;SDS_P2;PMS_P1;PMS_P2;Temp;Humidity;BMP_temperature;BMP_pressure;BME280_temperature;BME280_humidity;BME280_pressure;Samples;Min_cycle;Max_cycle;Signal;HPM_P1;HPM_P2
2023/07/10 00:01:34;;;;;;;6.23;5.57;;;23.70;1.00;;;;;;5116421;28;20425;-45
2023/07/10 00:04:00;;;;;;;8.70;6.23;;;23.70;1.00;;;;;;5116145;28;20465;-45
2023/07/10 00:06:25;;;;;;;6.00;5.40;;;23.70;1.00;;;;;;5117755;28;20183;-46
2023/07/10 00:08:51;;;;;;;6.70;6.00;;;23.70;1.00;;;;;;5117524;28;20430;-46
2023/07/10 00:11:27;;;;;;;5.70;5.17;;;23.70;1.00;;;;;;5119088;28;20245;-47
2023/07/10 00:13:54;;;;;;;6.00;5.50;;;23.70;1.00;;;;;;5117931;28;20199;-46
2023/07/10 00:16:21;;;;;;;7.20;6.10;;;23.70;1.00;;;;;;5117616;28;20462;-47
2023/07/10 00:18:47;;;;;;;6.33;5.73;;;23.70;1.00;;;;;;5116407;28;20453;-47
2023/07/10 00:21:13;;;;;;;6.60;6.00;;;23.70;1.00;;;;;;5116851;28;20428;-46
2023/07/10 00:23:39;;;;;;;5.83;5.13;;;23.70;1.00;;;;;;5117677;28;20417;-44
2023/07/10 00:26:20;;;;;;;6.47;5.87;;;23.70;1.00;;;;;;5118216;28;20429;-45
2023/07/10 00:28:51;;;;;;;5.97;5.37;;;23.70;1.00;;;;;;5117183;28;20236;-44
2023/07/10 00:31:17;;;;;;;6.90;6.30;;;23.70;1.00;;;;;;5117672;28;20520;-45
2023/07/10 00:33:47;;;;;;;8.83;7.10;;;23.70;1.00;;;;;;5118651;28;20839;-46
2023/07/10 00:36:31;;;;;;;7.93;7.23;;;23.60;1.00;;;;;;5118819;28;20450;-47
2023/07/10 00:38:57;;;;;;;7.93;7.20;;;23.40;1.00;;;;;;5118128;28;20421;-46
2023/07/10 00:41:24;;;;;;;7.80;7.10;;;23.30;1.00;;;;;;5115798;28;20437;-48
2023/07/10 00:43:55;;;;;;;7.73;7.03;;;23.20;1.00;;;;;;5116826;28;20776;-45
2023/07/10 00:46:47;;;;;;;7.27;6.67;;;23.10;1.00;;;;;;5099902;28;20964;-55
2023/07/10 00:49:18;;;;;;;7.50;6.80;;;23.10;1.00;;;;;;5117556;28;20504;-46
2023/07/10 00:52:12;;;;;;;7.23;6.53;;;23.10;1.00;;;;;;5116478;28;20461;-45
2023/07/10 00:54:42;;;;;;;7.60;6.80;;;23.10;1.00;;;;;;5108011;28;20429;-44
2023/07/10 00:57:33;;;;;;;7.60;6.90;;;23.00;1.00;;;;;;5117258;28;20425;-45
2023/07/10 00:59:59;;;;;;;7.73;7.00;;;23.00;1.00;;;;;;5116814;28;20445;-46
2023/07/10 01:02:25;;;;;;;7.93;7.10;;;23.00;1.00;;;;;;5116444;28;20465;-45
2023/07/10 01:04:59;;;;;;;8.93;8.10;;;22.90;1.00;;;;;;5118314;28;20410;-46
2023/07/10 01:07:27;;;;;;;8.17;7.37;;;22.90;1.00;;;;;;5116600;28;20240;-47
2023/07/10 01:10:00;;;;;;;7.40;6.80;;;22.90;1.00;;;;;;5116089;28;20468;-45
2023/07/10 01:12:27;;;;;;;8.67;7.10;;;22.90;1.00;;;;;;5115083;28;20554;-47
2023/07/10 01:14:52;;;;;;;7.27;6.63;;;22.90;1.00;;;;;;5115639;28;20417;-47
2023/07/10 01:17:19;;;;;;;8.00;7.20;;;22.90;1.00;;;;;;5115742;28;20440;-48
2023/07/10 01:19:45;;;;;;;8.23;7.37;;;22.80;1.00;;;;;;5116324;28;20160;-45
2023/07/10 01:22:11;;;;;;;8.80;7.13;;;22.80;1.00;;;;;;5115367;28;20850;-46
2023/07/10 01:24:37;;;;;;;7.70;6.90;;;22.80;1.00;;;;;;5117645;28;20504;-48
2023/07/10 01:27:05;;;;;;;8.50;7.67;;;22.80;1.00;;;;;;5114951;28;20302;-46
2023/07/10 01:29:43;;;;;;;6.97;6.37;;;22.80;1.00;;;;;;5115782;27;20456;-46
2023/07/10 01:32:15;;;;;;;7.73;7.03;;;22.80;1.00;;;;;;5114476;28;20887;-48
2023/07/10 01:34:52;;;;;;;9.93;7.97;;;22.80;1.00;;;;;;5114514;28;20401;-49
2023/07/10 01:37:18;;;;;;;7.30;6.70;;;22.80;1.00;;;;;;5115492;28;20874;-47
2023/07/10 01:39:50;;;;;;;7.90;7.10;;;22.70;1.00;;;;;;5115626;28;20433;-49
2023/07/10 01:42:16;;;;;;;8.43;7.67;;;22.70;1.00;;;;;;5116190;28;20183;-46
2023/07/10 01:44:43;;;;;;;8.73;7.93;;;22.70;1.00;;;;;;5116576;28;20421;-46
2023/07/10 01:47:10;;;;;;;9.93;7.70;;;22.70;1.00;;;;;;5116720;28;20429;-45
2023/07/10 01:49:45;;;;;;;8.23;7.43;;;22.70;1.00;;;;;;5116904;28;20782;-46
2023/07/10 01:52:13;;;;;;;8.00;7.30;;;22.70;1.00;;;;;;5113373;28;20460;-46
2023/07/10 01:54:38;;;;;;;7.27;6.57;;;22.70;1.00;;;;;;5115816;28;20418;-48
2023/07/10 01:57:05;;;;;;;8.43;7.73;;;22.70;1.00;;;;;;5115289;28;20590;-48
2023/07/10 01:59:31;;;;;;;7.23;6.53;;;22.60;1.00;;;;;;5115442;28;20421;-46
2023/07/10 02:01:58;;;;;;;9.10;7.30;;;22.60;1.00;;;;;;5113734;28;20556;-48
2023/07/10 02:04:24;;;;;;;9.03;8.13;;;22.60;1.00;;;;;;5114088;28;20409;-48
2023/07/10 02:06:50;;;;;;;7.40;6.70;;;22.60;1.00;;;;;;5115120;28;20737;-46
2023/07/10 02:09:16;;;;;;;7.27;6.67;;;22.60;1.00;;;;;;5114489;28;20451;-44
2023/07/10 02:11:42;;;;;;;9.23;7.53;;;22.60;1.00;;;;;;5114234;28;20472;-45
2023/07/10 02:14:08;;;;;;;9.30;7.53;;;22.60;1.00;;;;;;5115462;28;20202;-44
2023/07/10 02:16:34;;;;;;;8.20;7.33;;;22.60;1.00;;;;;;5115289;28;20414;-45
2023/07/10 02:19:00;;;;;;;7.27;6.63;;;22.50;1.00;;;;;;5115485;28;20486;-46
2023/07/10 02:21:26;;;;;;;8.70;7.90;;;22.50;20.50;;;;;;5115685;28;20430;-44
2023/07/10 02:23:51;;;;;;;8.17;7.37;;;22.40;27.60;;;;;;5115136;28;20193;-45
2023/07/10 02:26:17;;;;;;;7.70;7.00;;;22.40;35.90;;;;;;5115862;28;20216;-46
2023/07/10 02:28:44;;;;;;;7.57;6.97;;;22.40;38.10;;;;;;5114142;28;20178;-44
2023/07/10 02:31:10;;;;;;;8.13;7.43;;;22.40;43.70;;;;;;5111966;28;20572;-44
2023/07/10 02:33:36;;;;;;;9.03;8.23;;;22.40;44.20;;;;;;5103790;28;20932;-44
2023/07/10 02:36:02;;;;;;;7.50;6.80;;;22.40;37.50;;;;;;5095229;28;20445;-44
2023/07/10 02:38:28;;;;;;;7.50;6.90;;;22.50;30.00;;;;;;5114726;28;20490;-45
2023/07/10 02:40:55;;;;;;;7.80;7.00;;;22.50;30.90;;;;;;5114342;28;20495;-44
2023/07/10 02:43:20;;;;;;;9.20;7.43;;;22.50;27.20;;;;;;5098301;28;20422;-45
2023/07/10 02:45:46;;;;;;;8.20;6.90;;;22.60;20.10;;;;;;5095860;28;20426;-44
2023/07/10 02:48:11;;;;;;;8.30;7.50;;;22.60;13.40;;;;;;5095614;28;20584;-45
2023/07/10 02:50:37;;;;;;;8.50;7.70;;;22.60;18.20;;;;;;5094735;28;20304;-45
2023/07/10 02:53:03;;;;;;;7.77;7.13;;;22.60;32.70;;;;;;5112084;28;20176;-48
2023/07/10 02:55:28;;;;;;;7.93;7.30;;;22.60;66.60;;;;;;5115883;28;20438;-44
2023/07/10 02:57:54;;;;;;;7.90;6.70;;;22.60;99.90;;;;;;5114843;28;20164;-44
2023/07/10 03:00:19;;;;;;;8.20;7.40;;;22.60;99.90;;;;;;5113578;28;20217;-47
2023/07/10 03:02:45;;;;;;;11.27;7.10;;;22.50;99.90;;;;;;5114377;28;20551;-44
2023/07/10 03:05:11;;;;;;;8.70;7.90;;;22.40;99.90;;;;;;5116855;28;20290;-45
2023/07/10 03:07:36;;;;;;;8.20;7.40;;;22.30;99.90;;;;;;5115481;28;20226;-47
2023/07/10 03:10:02;;;;;;;7.33;6.60;;;22.30;99.90;;;;;;5115197;28;20557;-44
2023/07/10 03:12:28;;;;;;;8.00;7.20;;;22.30;99.90;;;;;;5114175;28;20256;-47
2023/07/10 03:14:54;;;;;;;7.50;6.33;;;22.30;1.00;;;;;;5115989;28;20758;-45
2023/07/10 03:17:19;;;;;;;8.13;7.37;;;22.40;1.00;;;;;;5117230;28;20184;-46
2023/07/10 03:19:47;;;;;;;8.70;7.77;;;22.40;1.00;;;;;;5117523;28;20172;-45
2023/07/10 03:22:13;;;;;;;8.17;7.37;;;22.40;1.00;;;;;;5117629;28;20495;-44
2023/07/10 03:24:39;;;;;;;7.40;6.73;;;22.40;1.00;;;;;;5117249;28;20539;-47
2023/07/10 03:27:05;;;;;;;8.57;7.60;;;22.40;1.00;;;;;;5117314;28;20191;-47
2023/07/10 03:29:30;;;;;;;7.77;7.10;;;22.40;1.00;;;;;;5099409;28;20695;-45
2023/07/10 03:31:56;;;;;;;9.30;6.80;;;22.40;1.00;;;;;;5115405;28;20480;-47
2023/07/10 03:34:22;;;;;;;8.07;7.23;;;22.40;1.00;;;;;;5096303;28;20168;-48
2023/07/10 03:36:47;;;;;;;8.53;7.63;;;22.40;1.00;;;;;;5111584;28;20418;-46
2023/07/10 03:39:13;;;;;;;8.13;7.40;;;22.40;1.00;;;;;;5113332;28;20458;-48
2023/07/10 03:41:39;;;;;;;8.83;7.80;;;22.50;1.00;;;;;;5114987;28;20514;-48
2023/07/10 03:44:05;;;;;;;7.73;6.80;;;22.50;1.00;;;;;;5113887;28;20175;-48
2023/07/10 03:46:31;;;;;;;7.83;7.13;;;22.50;1.00;;;;;;5114034;28;20179;-46
2023/07/10 03:48:57;;;;;;;8.10;7.30;;;22.50;1.00;;;;;;5113270;28;20544;-46
2023/07/10 03:51:23;;;;;;;8.10;7.40;;;22.50;2.70;;;;;;5114563;28;20650;-47
2023/07/10 03:53:48;;;;;;;7.77;6.97;;;22.50;1.00;;;;;;5114129;28;20908;-46
2023/07/10 03:56:15;;;;;;;7.60;6.63;;;22.50;1.00;;;;;;5115730;28;20500;-44
2023/07/10 03:58:43;;;;;;;7.87;7.27;;;22.50;1.00;;;;;;5116126;28;20191;-47
2023/07/10 04:01:10;;;;;;;8.93;7.60;;;22.50;1.00;;;;;;5116870;28;20847;-49
2023/07/10 04:03:37;;;;;;;8.50;7.70;;;22.60;1.00;;;;;;5098794;28;20567;-50
2023/07/10 04:06:03;;;;;;;8.23;6.97;;;22.60;99.90;;;;;;5117161;28;20465;-46
2023/07/10 04:08:31;;;;;;;8.17;7.27;;;22.60;53.40;;;;;;5117324;28;20514;-50
2023/07/10 04:10:59;;;;;;;8.63;7.83;;;22.60;1.00;;;;;;5117862;28;20469;-52
2023/07/10 04:13:26;;;;;;;8.30;7.50;;;22.70;99.90;;;;;;5116072;28;20488;-48
2023/07/10 04:16:15;;;;;;;8.10;7.30;;;22.70;99.90;;;;;;5117070;28;20826;-48
2023/07/10 04:18:41;;;;;;;10.40;8.03;;;22.70;91.40;;;;;;5116740;28;20698;-51
2023/07/10 04:21:11;;;;;;;8.73;7.43;;;22.80;32.30;;;;;;5097652;28;20508;-48
2023/07/10 04:23:36;;;;;;;7.90;7.20;;;22.80;9.30;;;;;;5115371;28;20874;-49
2023/07/10 04:26:02;;;;;;;8.33;7.57;;;22.90;1.00;;;;;;5113300;28;20685;-48
2023/07/10 04:28:28;;;;;;;8.00;6.90;;;22.90;1.00;;;;;;5113329;28;20192;-50
2023/07/10 04:30:54;;;;;;;7.40;6.70;;;22.90;1.00;;;;;;5113338;28;20521;-50
2023/07/10 04:33:20;;;;;;;7.23;6.53;;;23.00;1.00;;;;;;5116471;28;20489;-48
2023/07/10 04:35:53;;;;;;;7.43;6.83;;;23.00;1.00;;;;;;5101319;28;20754;-47
2023/07/10 04:38:19;;;;;;;8.90;8.10;;;23.00;1.00;;;;;;5095749;28;20431;-49
2023/07/10 04:40:55;;;;;;;7.70;6.90;;;23.00;1.00;;;;;;5103565;28;20417;-50
2023/07/10 04:43:21;;;;;;;7.80;7.10;;;23.10;1.00;;;;;;5114640;28;20476;-49
2023/07/10 04:45:48;;;;;;;8.73;7.93;;;23.10;1.00;;;;;;5113502;28;20448;-49
2023/07/10 04:48:14;;;;;;;10.07;7.23;;;23.20;1.00;;;;;;5114288;28;20433;-48
2023/07/10 04:50:39;;;;;;;8.50;7.80;;;23.30;1.00;;;;;;5113366;28;20468;-48
2023/07/10 04:53:05;;;;;;;10.80;8.00;;;23.20;1.00;;;;;;5112282;28;20180;-49
2023/07/10 04:55:31;;;;;;;9.30;8.40;;;23.00;44.20;;;;;;5112913;28;20199;-48
2023/07/10 04:57:56;;;;;;;11.10;8.57;;;22.80;99.90;;;;;;5111595;28;20193;-50
2023/07/10 05:00:22;;;;;;;10.40;8.63;;;22.80;99.90;;;;;;5112458;28;20433;-46
2023/07/10 05:02:47;;;;;;;9.30;8.50;;;22.80;99.90;;;;;;5112298;28;20220;-47
2023/07/10 05:05:13;;;;;;;8.53;7.70;;;22.90;45.90;;;;;;5113452;28;20172;-48
2023/07/10 05:07:39;;;;;;;8.93;7.60;;;23.00;1.00;;;;;;5109023;28;20175;-50
2023/07/10 05:10:05;;;;;;;8.50;7.53;;;23.10;1.00;;;;;;5094786;28;20202;-49
2023/07/10 05:12:30;;;;;;;8.03;7.23;;;23.20;1.00;;;;;;5101515;28;20200;-47
2023/07/10 05:14:56;;;;;;;8.37;7.60;;;23.30;1.00;;;;;;5104167;28;20440;-49
2023/07/10 05:17:21;;;;;;;9.33;8.43;;;23.50;1.00;;;;;;5106135;28;20286;-50
2023/07/10 05:19:47;;;;;;;9.10;7.80;;;23.70;99.90;;;;;;5096608;28;20249;-48
2023/07/10 05:22:12;;;;;;;8.13;7.43;;;23.80;99.90;;;;;;5098036;28;20175;-50
2023/07/10 05:24:39;;;;;;;7.50;6.77;;;23.90;99.90;;;;;;5111738;28;20181;-47
2023/07/10 05:27:04;;;;;;;8.27;7.57;;;24.00;99.90;;;;;;5093560;28;20257;-48
2023/07/10 05:29:30;;;;;;;7.50;6.90;;;24.20;99.90;;;;;;5095969;28;20445;-47
2023/07/10 05:31:56;;;;;;;8.37;7.60;;;24.30;99.90;;;;;;5101723;28;20208;-49
2023/07/10 05:34:23;;;;;;;8.43;7.63;;;24.40;99.90;;;;;;5103498;28;20206;-49
2023/07/10 05:36:49;;;;;;;9.13;7.73;;;24.40;84.20;;;;;;5113220;28;20425;-48
2023/07/10 05:39:15;;;;;;;8.83;7.90;;;24.50;60.60;;;;;;5112309;28;20452;-49
2023/07/10 05:41:41;;;;;;;8.13;7.33;;;24.50;52.60;;;;;;5110017;28;20677;-49
2023/07/10 05:44:06;;;;;;;8.60;7.80;;;24.40;63.50;;;;;;5108637;28;20248;-48
2023/07/10 05:46:32;;;;;;;8.07;7.20;;;24.30;76.20;;;;;;5108028;28;20413;-48
2023/07/10 05:48:58;;;;;;;8.40;7.70;;;24.30;77.10;;;;;;5108224;28;20168;-46
2023/07/10 05:51:23;;;;;;;7.70;7.00;;;24.50;68.30;;;;;;5109388;28;20576;-50
2023/07/10 05:53:49;;;;;;;8.47;7.77;;;24.60;61.90;;;;;;5110955;28;20176;-46
2023/07/10 05:56:15;;;;;;;8.80;7.27;;;24.60;58.80;;;;;;5110238;28;20252;-50
2023/07/10 05:58:41;;;;;;;9.33;7.30;;;24.50;57.10;;;;;;5110019;28;20206;-45
2023/07/10 06:01:06;;;;;;;10.00;7.60;;;24.40;59.00;;;;;;5109576;28;21640;-50
2023/07/10 06:03:33;;;;;;;9.43;7.33;;;24.50;56.60;;;;;;5109961;28;20258;-50
2023/07/10 06:06:05;;;;;;;8.13;7.20;;;24.60;52.00;;;;;;5109307;28;20187;-52
2023/07/10 06:08:31;;;;;;;8.63;7.73;;;24.60;49.00;;;;;;5110860;28;20637;-50
2023/07/10 06:10:57;;;;;;;8.00;7.30;;;24.70;34.00;;;;;;5110711;28;20472;-48
2023/07/10 06:13:23;;;;;;;7.90;7.10;;;24.90;27.80;;;;;;5111114;28;20422;-48
2023/07/10 06:15:52;;;;;;;8.67;7.87;;;25.10;11.70;;;;;;5109395;28;20176;-51
2023/07/10 06:18:18;;;;;;;8.47;7.63;;;25.40;1.00;;;;;;5109059;28;20577;-47
2023/07/10 06:20:50;;;;;;;8.20;7.50;;;25.60;1.00;;;;;;5110466;28;20409;-48
2023/07/10 06:23:16;;;;;;;8.83;7.93;;;25.90;1.00;;;;;;5111746;28;20409;-49
2023/07/10 06:25:43;;;;;;;9.53;7.80;;;26.10;1.00;;;;;;5108941;28;20448;-48
2023/07/10 06:28:09;;;;;;;8.10;7.40;;;26.20;1.00;;;;;;5093209;28;20282;-48
2023/07/10 06:30:41;;;;;;;7.97;7.27;;;26.20;1.00;;;;;;5112843;28;20590;-49
2023/07/10 06:33:07;;;;;;;8.33;7.53;;;26.40;1.00;;;;;;5113094;28;20344;-48
2023/07/10 06:35:33;;;;;;;8.33;7.53;;;26.70;1.00;;;;;;5108420;28;20413;-45
2023/07/10 06:37:58;;;;;;;7.17;6.50;;;27.00;1.00;;;;;;5107260;28;20706;-47
2023/07/10 06:40:24;;;;;;;9.77;7.20;;;27.30;1.00;;;;;;5109744;28;20201;-52
2023/07/10 06:42:50;;;;;;;6.77;6.17;;;27.50;1.00;;;;;;5112054;28;20234;-48
2023/07/10 06:45:15;;;;;;;8.20;7.33;;;27.80;1.00;;;;;;5109682;28;20451;-48
2023/07/10 06:47:43;;;;;;;7.70;7.10;;;28.00;1.00;;;;;;5110834;28;20269;-49
2023/07/10 06:50:10;;;;;;;8.50;7.00;;;28.00;1.00;;;;;;5109713;28;20569;-51
2023/07/10 06:52:38;;;;;;;8.97;8.03;;;27.80;1.00;;;;;;5108365;28;20454;-51
2023/07/10 06:55:05;;;;;;;8.30;6.83;;;27.50;1.00;;;;;;5109331;28;20833;-51
2023/07/10 06:57:30;;;;;;;9.20;8.17;;;27.40;1.00;;;;;;5109677;28;20464;-49
2023/07/10 06:59:56;;;;;;;7.57;6.87;;;27.50;1.00;;;;;;5109854;28;20432;-49
2023/07/10 07:02:22;;;;;;;9.50;7.30;;;27.40;1.00;;;;;;5109092;28;20552;-49
2023/07/10 07:04:47;;;;;;;8.83;7.80;;;27.40;1.00;;;;;;5108260;28;20194;-49
2023/07/10 07:07:13;;;;;;;7.10;6.40;;;27.50;1.00;;;;;;5111302;28;20565;-49
2023/07/10 07:09:38;;;;;;;8.10;7.30;;;27.70;1.00;;;;;;5112938;28;20401;-47
2023/07/10 07:12:05;;;;;;;8.70;7.90;;;27.80;1.00;;;;;;5113130;28;20232;-53
2023/07/10 07:14:31;;;;;;;8.10;6.80;;;28.00;1.00;;;;;;5131285;28;20182;-48
2023/07/10 07:16:56;;;;;;;8.77;7.93;;;27.80;1.00;;;;;;5134141;28;20480;-50
2023/07/10 07:19:22;;;;;;;7.73;7.13;;;27.80;1.00;;;;;;5132792;28;20473;-48
2023/07/10 07:21:48;;;;;;;7.63;7.03;;;27.90;1.00;;;;;;5127633;28;20199;-49
2023/07/10 07:24:13;;;;;;;7.13;6.53;;;27.90;1.00;;;;;;5113998;28;20260;-48
2023/07/10 07:26:39;;;;;;;7.10;6.40;;;27.70;1.00;;;;;;5113924;28;20361;-49
2023/07/10 07:29:04;;;;;;;8.07;6.47;;;27.70;1.00;;;;;;5094617;28;20172;-49
2023/07/10 07:31:30;;;;;;;8.73;7.63;;;27.70;1.00;;;;;;5113518;28;20207;-48
2023/07/10 07:33:56;;;;;;;7.37;6.67;;;27.60;1.00;;;;;;5115104;28;20244;-50
2023/07/10 07:36:21;;;;;;;7.70;6.87;;;27.60;1.00;;;;;;5112499;28;20687;-49
2023/07/10 07:38:47;;;;;;;7.27;6.57;;;27.70;1.00;;;;;;5095867;28;20168;-47
2023/07/10 07:41:13;;;;;;;7.93;7.13;;;27.90;1.00;;;;;;5113401;28;20335;-48
2023/07/10 07:43:39;;;;;;;8.33;7.53;;;28.30;1.00;;;;;;5111877;28;20180;-48
2023/07/10 07:46:05;;;;;;;8.93;8.23;;;28.60;1.00;;;;;;5113121;28;20585;-51
2023/07/10 07:48:31;;;;;;;8.37;7.57;;;29.00;1.00;;;;;;5111288;28;20176;-48
2023/07/10 07:51:03;;;;;;;8.87;7.97;;;29.20;1.00;;;;;;5098758;28;20252;-50
2023/07/10 07:53:31;;;;;;;9.43;7.10;;;29.10;1.00;;;;;;5118025;28;20401;-48
2023/07/10 07:55:57;;;;;;;8.00;7.20;;;29.30;1.00;;;;;;5116120;28;20421;-49
2023/07/10 07:58:23;;;;;;;7.10;6.50;;;29.40;1.00;;;;;;5115543;28;20421;-47
2023/07/10 08:00:49;;;;;;;7.50;6.90;;;29.20;1.00;;;;;;5114789;28;20454;-48
2023/07/10 08:03:15;;;;;;;7.60;6.80;;;29.50;1.00;;;;;;5079043;28;20235;-51
2023/07/10 08:05:41;;;;;;;8.33;6.90;;;30.00;1.00;;;;;;5111057;28;20440;-48
2023/07/10 08:08:10;;;;;;;8.47;7.70;;;30.30;1.00;;;;;;5112263;28;20409;-48
2023/07/10 08:10:38;;;;;;;8.57;7.73;;;30.00;1.00;;;;;;5114822;28;20172;-47
2023/07/10 08:13:04;;;;;;;10.77;6.90;;;29.90;1.00;;;;;;5113926;28;20417;-49
2023/07/10 08:15:31;;;;;;;7.93;7.13;;;29.50;1.00;;;;;;5113656;28;20768;-49
2023/07/10 08:17:57;;;;;;;8.07;7.27;;;29.20;1.00;;;;;;5113032;28;20433;-49
2023/07/10 08:20:23;;;;;;;7.50;6.80;;;29.20;1.00;;;;;;5095806;28;20425;-49
2023/07/10 08:22:48;;;;;;;8.23;6.77;;;29.00;1.00;;;;;;5115607;28;20732;-48
2023/07/10 08:25:14;;;;;;;7.83;7.13;;;29.00;1.00;;;;;;5114588;28;20429;-48
2023/07/10 08:27:41;;;;;;;9.80;7.73;;;29.00;1.00;;;;;;5115725;28;20180;-50
2023/07/10 08:30:07;;;;;;;8.20;7.60;;;28.80;1.00;;;;;;5114402;28;20240;-48
2023/07/10 08:32:33;;;;;;;7.57;6.97;;;28.80;1.00;;;;;;5114617;28;20508;-49
2023/07/10 08:34:59;;;;;;;9.87;8.30;;;29.10;1.00;;;;;;5114433;28;20552;-49
2023/07/10 08:37:24;;;;;;;8.37;7.47;;;29.30;1.00;;;;;;5114796;28;20237;-48
2023/07/10 08:39:50;;;;;;;7.67;6.97;;;29.40;1.00;;;;;;5113840;28;20509;-51
2023/07/10 08:42:19;;;;;;;8.07;7.37;;;29.40;1.00;;;;;;5114353;28;20214;-48
2023/07/10 08:44:48;;;;;;;7.90;7.20;;;29.60;1.00;;;;;;5097124;28;20199;-50
2023/07/10 08:47:34;;;;;;;8.43;7.73;;;30.10;1.00;;;;;;5098624;28;20412;-48
2023/07/10 08:50:18;;;;;;;8.23;7.53;;;30.40;1.00;;;;;;5115237;28;20421;-49
2023/07/10 08:52:49;;;;;;;8.47;7.30;;;30.60;1.00;;;;;;5096963;28;20564;-48
2023/07/10 08:55:41;;;;;;;8.03;7.33;;;30.50;1.00;;;;;;5114353;28;20532;-49
2023/07/10 08:58:18;;;;;;;8.87;8.00;;;30.40;1.00;;;;;;5114848;28;20433;-50
2023/07/10 09:00:45;;;;;;;7.93;7.23;;;30.40;1.00;;;;;;5115611;28;20433;-48
2023/07/10 09:03:23;;;;;;;8.33;7.63;;;30.00;1.00;;;;;;5114791;28;20479;-50
2023/07/10 09:05:50;;;;;;;10.57;8.10;;;30.20;1.00;;;;;;5098989;28;20505;-50
2023/07/10 09:08:16;;;;;;;8.97;7.63;;;30.40;1.00;;;;;;5097861;28;20377;-48
2023/07/10 09:10:48;;;;;;;8.70;7.97;;;30.80;1.00;;;;;;5096912;28;20461;-49
2023/07/10 09:13:18;;;;;;;9.60;8.40;;;31.20;1.00;;;;;;5096757;28;20720;-49
2023/07/10 09:15:56;;;;;;;8.67;7.80;;;31.60;1.00;;;;;;5097387;28;20451;-48
2023/07/10 09:18:53;;;;;;;8.80;7.73;;;31.30;1.00;;;;;;5095194;28;20424;-49
2023/07/10 09:21:21;;;;;;;7.57;6.90;;;30.80;1.00;;;;;;5113189;28;20510;-47
2023/07/10 09:23:48;;;;;;;8.03;7.33;;;31.10;1.00;;;;;;5095630;28;20850;-48
2023/07/10 09:26:21;;;;;;;7.77;7.13;;;31.50;1.00;;;;;;5095993;28;20504;-48
2023/07/10 09:29:17;;;;;;;7.87;7.07;;;32.20;1.00;;;;;;5113402;28;20425;-49
2023/07/10 09:32:00;;;;;;;8.73;7.93;;;32.80;1.00;;;;;;5095737;28;20718;-48
2023/07/10 09:34:31;;;;;;;9.20;8.40;;;32.40;1.00;;;;;;5114227;28;20409;-47
2023/07/10 09:36:58;;;;;;;8.93;8.03;;;32.40;1.00;;;;;;5112494;28;20437;-48
2023/07/10 09:39:28;;;;;;;8.93;8.03;;;32.10;1.00;;;;;;5094221;28;20494;-48
2023/07/10 09:41:57;;;;;;;8.33;7.60;;;31.70;1.00;;;;;;5112514;28;20775;-48
2023/07/10 09:44:23;;;;;;;8.37;7.77;;;31.70;1.00;;;;;;5092227;28;20479;-48
2023/07/10 09:46:49;;;;;;;7.73;7.03;;;31.90;1.00;;;;;;5111640;28;20511;-47
2023/07/10 09:49:20;;;;;;;8.53;7.67;;;32.30;1.00;;;;;;5112003;28;20469;-48
2023/07/10 09:51:58;;;;;;;8.50;7.70;;;32.70;1.00;;;;;;5092841;28;20457;-50
2023/07/10 09:54:24;;;;;;;7.83;7.03;;;33.20;1.00;;;;;;5093585;28;20451;-51
2023/07/10 09:56:54;;;;;;;8.93;8.03;;;33.60;1.00;;;;;;5113643;28;20402;-49
2023/07/10 09:59:22;;;;;;;8.33;7.43;;;33.90;1.00;;;;;;5113479;28;20457;-48
2023/07/10 10:01:50;;;;;;;8.80;8.10;;;34.30;1.00;;;;;;5113301;28;20392;-49
2023/07/10 10:04:27;;;;;;;8.83;8.10;;;34.50;1.00;;;;;;5113289;28;20872;-49
2023/07/10 10:07:05;;;;;;;8.20;7.47;;;34.80;1.00;;;;;;5093571;28;20451;-52
2023/07/10 10:09:32;;;;;;;7.73;7.13;;;35.10;1.00;;;;;;5093574;28;20502;-50
2023/07/10 10:12:10;;;;;;;8.80;8.00;;;35.30;1.00;;;;;;5113083;28;20454;-52
2023/07/10 10:14:41;;;;;;;7.47;6.90;;;35.60;1.00;;;;;;5110328;28;20691;-52
2023/07/10 10:17:09;;;;;;;8.30;7.60;;;35.50;1.00;;;;;;5111739;28;20459;-50
2023/07/10 10:19:37;;;;;;;7.83;7.23;;;35.10;1.00;;;;;;5094296;28;20487;-48
2023/07/10 10:22:14;;;;;;;8.93;8.13;;;34.70;1.00;;;;;;5094247;28;20709;-49
2023/07/10 10:24:40;;;;;;;10.07;8.90;;;34.40;1.00;;;;;;5094030;28;20488;-50
2023/07/10 10:27:33;;;;;;;9.03;8.23;;;34.10;1.00;;;;;;5111255;28;20654;-49
2023/07/10 10:30:06;;;;;;;7.63;7.03;;;33.70;1.00;;;;;;5112164;28;20413;-49
2023/07/10 10:32:46;;;;;;;8.53;7.83;;;33.80;1.00;;;;;;5111787;28;20504;-49
2023/07/10 10:35:20;;;;;;;10.73;7.60;;;33.50;1.00;;;;;;5111321;28;20406;-48
2023/07/10 10:38:04;;;;;;;9.17;8.10;;;33.10;1.00;;;;;;5112809;28;20400;-48
2023/07/10 10:40:30;;;;;;;8.60;7.80;;;32.80;1.00;;;;;;5113152;28;20400;-48
2023/07/10 10:43:36;;;;;;;9.00;8.17;;;32.50;1.00;;;;;;5110390;28;20392;-51
2023/07/10 10:46:20;;;;;;;7.90;7.20;;;32.30;1.00;;;;;;5111412;28;20232;-50
2023/07/10 10:49:04;;;;;;;8.57;7.87;;;32.40;1.00;;;;;;5112171;28;20464;-49
2023/07/10 10:51:39;;;;;;;9.20;6.70;;;33.10;1.00;;;;;;5078894;28;20533;-49
2023/07/10 10:54:19;;;;;;;8.63;7.93;;;34.00;1.00;;;;;;5111526;28;20396;-48
2023/07/10 10:56:53;;;;;;;8.57;7.87;;;34.30;1.00;;;;;;5111016;28;20417;-49
2023/07/10 10:59:49;;;;;;;7.87;7.27;;;34.10;1.00;;;;;;5110457;28;20390;-49
2023/07/10 11:02:40;;;;;;;8.10;7.30;;;33.70;1.00;;;;;;5109775;28;20473;-48
2023/07/10 11:05:17;;;;;;;9.17;8.30;;;33.60;1.00;;;;;;5110529;28;20465;-50
2023/07/10 11:07:45;;;;;;;8.17;7.43;;;33.50;1.00;;;;;;5093177;28;20400;-50
2023/07/10 11:10:15;;;;;;;9.47;8.77;;;33.60;1.00;;;;;;5091702;28;20564;-53
2023/07/10 11:12:42;;;;;;;8.90;8.20;;;33.80;1.00;;;;;;5109829;28;20459;-49
2023/07/10 11:15:17;;;;;;;8.87;8.10;;;34.00;1.00;;;;;;5090469;28;20790;-48
2023/07/10 11:17:47;;;;;;;8.53;7.73;;;34.20;1.00;;;;;;5091441;28;20739;-47
2023/07/10 11:20:15;;;;;;;8.73;7.93;;;34.50;1.00;;;;;;5094215;28;20429;-50
2023/07/10 11:22:54;;;;;;;7.50;6.90;;;35.10;1.00;;;;;;5092185;28;20674;-49
2023/07/10 11:25:31;;;;;;;8.03;7.40;;;34.70;1.00;;;;;;5111111;28;20726;-49
2023/07/10 11:28:17;;;;;;;8.90;7.43;;;34.50;1.00;;;;;;5096182;28;20415;-49
2023/07/10 11:30:42;;;;;;;10.60;7.63;;;34.50;1.00;;;;;;5096670;28;20431;-50
2023/07/10 11:33:19;;;;;;;7.10;6.50;;;34.80;1.00;;;;;;5115007;28;20448;-51
2023/07/10 11:36:11;;;;;;;7.23;6.53;;;34.40;1.00;;;;;;5114799;28;20240;-50
2023/07/10 11:38:57;;;;;;;7.93;6.77;;;34.40;1.00;;;;;;5112930;28;20408;-50
2023/07/10 11:41:30;;;;;;;7.67;7.07;;;34.30;1.00;;;;;;5114089;28;20459;-48
2023/07/10 11:44:33;;;;;;;7.53;6.83;;;34.00;1.00;;;;;;5125288;27;20481;-52
2023/07/10 11:47:19;;;;;;;7.00;6.40;;;34.00;1.00;;;;;;5131171;27;20402;-50
2023/07/10 11:49:45;;;;;;;6.10;5.60;;;34.00;1.00;;;;;;5134876;27;20403;-50
2023/07/10 11:52:18;;;;;;;6.70;6.10;;;34.10;1.00;;;;;;5122871;27;20440;-50
2023/07/10 11:54:47;;;;;;;7.43;6.60;;;34.30;1.00;;;;;;5116877;28;20557;-50
2023/07/10 11:57:19;;;;;;;7.80;6.03;;;34.10;1.00;;;;;;5115549;27;20477;-48
2023/07/10 11:59:52;;;;;;;6.97;6.37;;;34.50;1.00;;;;;;5114870;28;20737;-49
2023/07/10 12:02:26;;;;;;;7.00;6.50;;;34.80;1.00;;;;;;5113826;28;20505;-52
2023/07/10 12:04:52;;;;;;;6.27;5.60;;;34.50;1.00;;;;;;5113324;28;20457;-48
2023/07/10 12:07:18;;;;;;;7.20;6.60;;;34.40;1.00;;;;;;5114136;28;20776;-49
2023/07/10 12:09:49;;;;;;;6.70;6.00;;;34.30;1.00;;;;;;5113215;28;20392;-52
2023/07/10 12:12:15;;;;;;;7.13;6.50;;;34.50;1.00;;;;;;5094757;28;20456;-50
2023/07/10 12:14:40;;;;;;;7.40;6.73;;;34.80;1.00;;;;;;5113598;28;20392;-48
2023/07/10 12:17:13;;;;;;;7.17;6.57;;;34.60;1.00;;;;;;5096971;28;20487;-50
2023/07/10 12:19:39;;;;;;;6.50;5.80;;;34.80;1.00;;;;;;5076393;28;20179;-54
2023/07/10 12:22:19;;;;;;;6.67;6.10;;;35.40;1.00;;;;;;5093809;28;20437;-47
2023/07/10 12:24:59;;;;;;;7.50;6.90;;;35.70;1.00;;;;;;5124899;27;20448;-50
2023/07/10 12:27:31;;;;;;;6.70;6.10;;;35.30;1.00;;;;;;5114468;27;20430;-48
2023/07/10 12:29:57;;;;;;;6.33;5.63;;;36.00;1.00;;;;;;5130588;27;20858;-50
2023/07/10 12:32:25;;;;;;;7.40;6.70;;;35.80;1.00;;;;;;5112664;27;20575;-46
2023/07/10 12:34:50;;;;;;;7.00;6.37;;;35.50;1.00;;;;;;5132413;27;20167;-48
2023/07/10 12:37:17;;;;;;;6.00;5.60;;;35.50;1.00;;;;;;5132790;27;20406;-49
2023/07/10 12:39:47;;;;;;;6.47;5.87;;;35.60;1.00;;;;;;5116868;27;20206;-51
2023/07/10 12:42:37;;;;;;;9.07;6.43;;;36.10;1.00;;;;;;5133992;27;20483;-47
2023/07/10 12:45:35;;;;;;;6.43;5.80;;;36.40;1.00;;;;;;5115007;27;20395;-49
2023/07/10 12:48:12;;;;;;;6.83;6.23;;;35.80;1.00;;;;;;5060636;27;20424;-52
2023/07/10 12:50:51;;;;;;;7.57;6.97;;;35.80;1.00;;;;;;5116545;27;20432;-48
2023/07/10 12:53:19;;;;;;;6.97;6.27;;;35.50;1.00;;;;;;5133447;27;20425;-47
2023/07/10 12:55:45;;;;;;;8.03;7.37;;;35.60;1.00;;;;;;5113383;27;20738;-50
2023/07/10 12:58:14;;;;;;;7.17;6.53;;;35.60;1.00;;;;;;5112467;27;20541;-51
2023/07/10 13:00:47;;;;;;;8.23;7.33;;;35.00;1.00;;;;;;5114201;27;20811;-50
2023/07/10 13:03:26;;;;;;;7.00;6.40;;;35.20;1.00;;;;;;5125352;27;20558;-49
2023/07/10 13:05:54;;;;;;;6.87;6.27;;;35.40;1.00;;;;;;5112483;28;20403;-54
2023/07/10 13:08:20;;;;;;;7.00;6.40;;;36.00;1.00;;;;;;5113291;28;21010;-51